Time;durP1;ratioP1;P1;durP2;ratioP2;P2;SDS_P1;SDS_P2;PMS_P1;PMS_P2;Temp;Humidity;BMP_temperature;BMP_pressure;BME280_temperature;BME280_humidity;BME280_pressure;Samples;Min_cycle;Max_cycle;Signal;HPM_P1;HPM_P2
2022/03/26 00:00:18;;;;;;;1999.90;999.90;;;;;;;6.95;40.75;102528.91;4945377;28;97186;-77
2022/03/26 00:02:47;;;;;;;1999.90;999.90;;;;;;;6.96;40.37;102526.34;4938872;22;97978;-72
2022/03/26 00:05:16;;;;;;;1999.90;999.90;;;;;;;6.98;40.06;102526.47;4915075;28;98563;-72
2022/03/26 00:07:44;;;;;;;1999.90;999.90;;;;;;;6.98;40.20;102522.06;4925532;28;97901;-73
2022/03/26 00:10:12;;;;;;;1999.90;999.90;;;;;;;7.01;40.08;102529.28;4918518;28;97909;-72
2022/03/26 00:12:40;;;;;;;1999.90;999.90;;;;;;;7.01;39.69;102524.94;4899144;28;100258;-73
2022/03/26 00:15:09;;;;;;;1999.90;999.90;;;;;;;7.03;39.62;102519.72;4919396;28;97912;-73
2022/03/26 00:17:37;;;;;;;1999.90;999.90;;;;;;;7.03;39.62;102517.06;4918583;28;97179;-72
2022/03/26 00:20:07;;;;;;;1999.90;999.90;;;;;;;7.04;39.60;102522.47;4916400;28;97407;-73
2022/03/26 00:22:35;;;;;;;1999.90;999.90;;;;;;;7.04;39.44;102518.88;4918980;28;97528;-75
2022/03/26 00:25:04;;;;;;;1999.90;999.90;;;;;;;7.01;39.32;102516.06;4913213;28;98972;-72
2022/03/26 00:27:31;;;;;;;1999.90;999.90;;;;;;;7.03;38.92;102511.78;4916050;28;97351;-72
2022/03/26 00:29:59;;;;;;;1999.90;999.90;;;;;;;7.01;39.13;102508.13;4917678;28;98151;-74
2022/03/26 00:32:27;;;;;;;1999.90;999.90;;;;;;;6.99;39.34;102508.03;4910219;28;99458;-74
2022/03/26 00:34:54;;;;;;;1999.90;999.90;;;;;;;6.99;39.73;102501.81;4927901;28;97632;-72
2022/03/26 00:37:24;;;;;;;1999.90;999.90;;;;;;;6.99;40.02;102501.81;4914201;28;97823;-74
2022/03/26 00:39:52;;;;;;;1999.90;999.90;;;;;;;6.94;40.33;102505.91;4913690;28;97520;-72
2022/03/26 00:42:19;;;;;;;1999.90;999.90;;;;;;;6.89;40.47;102507.38;4914294;28;98857;-75
2022/03/26 00:44:48;;;;;;;1999.90;999.90;;;;;;;6.84;40.67;102511.41;4916607;28;99156;-73
2022/03/26 00:47:16;;;;;;;1999.90;999.90;;;;;;;6.80;40.84;102520.91;4909536;28;97104;-74
2022/03/26 00:49:44;;;;;;;1999.90;999.90;;;;;;;6.77;40.54;102519.78;4895706;28;97579;-74
2022/03/26 00:52:11;;;;;;;1999.90;999.90;;;;;;;6.76;40.42;102528.56;4913173;28;98863;-74
2022/03/26 00:54:40;;;;;;;1999.90;999.90;;;;;;;6.75;40.58;102521.41;4908797;28;99255;-73
2022/03/26 00:57:09;;;;;;;1999.90;999.90;;;;;;;6.74;40.65;102524.91;4912313;28;98548;-73
2022/03/26 00:59:37;;;;;;;1999.90;999.90;;;;;;;6.72;40.89;102526.53;4913489;28;96987;-75
2022/03/26 01:02:05;;;;;;;1999.90;999.90;;;;;;;6.69;41.17;102534.28;4913503;28;98069;-73
2022/03/26 01:04:38;;;;;;;1999.90;999.90;;;;;;;6.63;41.25;102521.56;4911962;28;98623;-74
2022/03/26 01:07:06;;;;;;;1999.90;999.90;;;;;;;6.61;41.36;102527.56;4912305;28;97561;-71
2022/03/26 01:09:34;;;;;;;1999.90;999.90;;;;;;;6.57;41.37;102520.22;4913227;28;97701;-75
2022/03/26 01:12:03;;;;;;;1999.90;999.90;;;;;;;6.55;41.64;102522.78;4914372;28;97696;-73
2022/03/26 01:14:31;;;;;;;1999.90;999.90;;;;;;;6.55;41.10;102516.56;4914868;28;97988;-73
2022/03/26 01:16:59;;;;;;;1999.90;999.90;;;;;;;6.56;41.23;102513.13;4915062;28;97776;-74
2022/03/26 01:19:26;;;;;;;1999.90;999.90;;;;;;;6.57;40.90;102512.31;4898236;28;98228;-75
2022/03/26 01:21:54;;;;;;;1999.90;999.90;;;;;;;6.56;41.12;102514.03;4916217;28;98200;-73
2022/03/26 01:24:22;;;;;;;1999.90;999.90;;;;;;;6.56;40.88;102519.31;4915028;28;99025;-74
2022/03/26 01:26:49;;;;;;;1999.90;999.90;;;;;;;6.58;40.87;102517.69;4916443;28;97779;-73
2022/03/26 01:29:19;;;;;;;1999.90;999.90;;;;;;;6.56;41.15;102510.50;4923031;28;97638;-75
2022/03/26 01:31:46;;;;;;;1999.90;999.90;;;;;;;6.53;41.81;102507.63;4918376;28;98852;-74
2022/03/26 01:34:14;;;;;;;1999.90;999.90;;;;;;;6.47;41.82;102509.91;4918250;28;97248;-74
2022/03/26 01:36:42;;;;;;;1999.90;999.90;;;;;;;6.41;42.10;102506.84;4917592;28;97413;-73
2022/03/26 01:39:10;;;;;;;1999.90;999.90;;;;;;;6.37;42.00;102495.16;4920027;28;99176;-75
2022/03/26 01:41:38;;;;;;;1999.90;999.90;;;;;;;6.33;42.11;102497.47;4900968;28;100390;-73
2022/03/26 01:44:07;;;;;;;1999.90;999.90;;;;;;;6.28;41.96;102506.84;4918854;28;97539;-74
2022/03/26 01:46:50;;;;;;;1999.90;999.90;;;;;;;6.24;41.91;102509.25;4914613;28;97182;-73
2022/03/26 01:49:18;;;;;;;1999.90;999.90;;;;;;;6.25;41.65;102505.78;4903773;28;97269;-74
2022/03/26 01:51:46;;;;;;;1999.90;999.90;;;;;;;6.25;41.62;102500.50;4921672;28;97795;-73
2022/03/26 01:54:15;;;;;;;1999.90;999.90;;;;;;;6.24;41.66;102503.06;4919462;28;98200;-75
2022/03/26 01:56:43;;;;;;;1999.90;999.90;;;;;;;6.23;41.55;102498.59;4922823;28;97509;-75
2022/03/26 01:59:11;;;;;;;1999.90;999.90;;;;;;;6.22;41.99;102500.31;4918559;28;97100;-73
2022/03/26 02:01:39;;;;;;;1999.90;999.90;;;;;;;6.24;41.97;102498.69;4916187;28;97861;-73
2022/03/26 02:04:09;;;;;;;1999.90;999.90;;;;;;;6.22;41.65;102489.75;4919442;28;99581;-73
2022/03/26 02:06:39;;;;;;;1999.90;999.90;;;;;;;6.20;41.72;102496.66;4918640;28;97347;-73
2022/03/26 02:09:09;;;;;;;1999.90;999.90;;;;;;;6.18;41.90;102493.00;4926453;28;99024;-74
2022/03/26 02:11:38;;;;;;;1999.90;999.90;;;;;;;6.17;42.12;102488.53;4916898;28;97950;-74
2022/03/26 02:14:08;;;;;;;1999.90;999.90;;;;;;;6.17;41.97;102487.59;4918085;28;98057;-73
2022/03/26 02:16:37;;;;;;;1999.90;999.90;;;;;;;6.16;41.96;102488.41;4917304;28;99788;-73
2022/03/26 02:19:07;;;;;;;1999.90;999.90;;;;;;;6.17;42.33;102490.25;4917836;28;99452;-73
2022/03/26 02:21:37;;;;;;;1999.90;999.90;;;;;;;6.19;41.93;102492.19;4917802;28;97491;-74
2022/03/26 02:24:08;;;;;;;1999.90;999.90;;;;;;;6.19;41.96;102484.25;4919898;28;98234;-73
2022/03/26 02:26:36;;;;;;;1999.90;999.90;;;;;;;6.18;42.17;102493.00;4916321;28;98050;-73
2022/03/26 02:29:07;;;;;;;1999.90;999.90;;;;;;;6.12;42.24;102489.94;4918145;28;97038;-75
2022/03/26 02:31:35;;;;;;;1999.90;999.90;;;;;;;6.12;42.34;102497.84;4917000;28;97968;-75
2022/03/26 02:34:03;;;;;;;1999.90;999.90;;;;;;;6.10;41.87;102488.91;4917008;28;97588;-73
2022/03/26 02:36:31;;;;;;;1999.90;999.90;;;;;;;6.11;41.93;102484.56;4918668;28;98100;-75
2022/03/26 02:39:00;;;;;;;1999.90;999.90;;;;;;;6.11;42.15;102488.13;4916298;28;98507;-74
2022/03/26 02:41:28;;;;;;;1999.90;999.90;;;;;;;6.09;41.95;102487.09;4916195;28;100217;-73
2022/03/26 02:43:55;;;;;;;1999.90;999.90;;;;;;;6.08;41.90;102490.56;4916800;28;98900;-73
2022/03/26 02:46:23;;;;;;;1999.90;999.90;;;;;;;6.07;42.20;102480.78;4916374;28;96793;-75
2022/03/26 02:48:51;;;;;;;1999.90;999.90;;;;;;;6.07;41.87;102477.22;4920894;28;97673;-74
2022/03/26 02:51:19;;;;;;;1999.90;999.90;;;;;;;6.06;42.04;102480.69;4917935;28;97838;-73
2022/03/26 02:53:46;;;;;;;1999.90;999.90;;;;;;;6.03;41.83;102473.47;4916235;28;98051;-73
2022/03/26 02:56:15;;;;;;;1999.90;999.90;;;;;;;6.04;41.98;102477.03;4909113;28;98367;-74
2022/03/26 02:58:43;;;;;;;1999.90;999.90;;;;;;;6.03;41.73;102486.69;4916350;28;96983;-74
2022/03/26 03:01:12;;;;;;;1999.90;999.90;;;;;;;6.03;41.62;102481.41;4914981;28;98949;-73
2022/03/26 03:03:41;;;;;;;1999.90;999.90;;;;;;;6.02;41.77;102474.28;4928252;28;99146;-74
2022/03/26 03:06:09;;;;;;;1999.90;999.90;;;;;;;6.01;41.79;102472.44;4905327;28;98145;-73
2022/03/26 03:08:37;;;;;;;1999.90;999.90;;;;;;;6.02;41.49;102474.28;4915975;28;97687;-74
2022/03/26 03:11:07;;;;;;;1999.90;999.90;;;;;;;6.02;41.66;102474.28;4916926;28;100194;-74
2022/03/26 03:13:36;;;;;;;1999.90;999.90;;;;;;;5.97;41.66;102469.50;4918884;28;97923;-75
2022/03/26 03:16:04;;;;;;;1999.90;999.90;;;;;;;5.94;41.46;102475.50;4913714;28;98329;-74
2022/03/26 03:18:32;;;;;;;1999.90;999.90;;;;;;;5.93;41.45;102472.75;4918127;28;97401;-74
2022/03/26 03:21:01;;;;;;;1999.90;999.90;;;;;;;5.90;41.49;102478.75;4918370;28;98144;-73
2022/03/26 03:23:29;;;;;;;1999.90;999.90;;;;;;;5.83;41.86;102465.94;4932039;28;98625;-73
2022/03/26 03:25:57;;;;;;;1999.90;999.90;;;;;;;5.77;41.84;102467.28;4926862;28;98089;-73
2022/03/26 03:28:25;;;;;;;1999.90;999.90;;;;;;;5.71;41.82;102473.06;4917007;28;97225;-73
2022/03/26 03:30:54;;;;;;;1999.90;999.90;;;;;;;5.68;42.04;102474.56;4914847;28;99178;-73
2022/03/26 03:33:22;;;;;;;1999.90;999.90;;;;;;;5.64;42.07;102478.75;4915781;28;98840;-73
2022/03/26 03:35:50;;;;;;;1999.90;999.90;;;;;;;5.59;41.97;102484.50;4915611;28;97019;-73
2022/03/26 03:38:18;;;;;;;1999.90;999.90;;;;;;;5.54;42.02;102473.63;4915928;28;97496;-73
2022/03/26 03:40:45;;;;;;;1999.90;999.90;;;;;;;5.53;42.10;102476.16;4916112;28;100818;-75
2022/03/26 03:43:13;;;;;;;1999.90;999.90;;;;;;;5.49;42.04;102472.41;4917889;28;97537;-73
2022/03/26 03:45:42;;;;;;;1999.90;999.90;;;;;;;5.45;42.08;102470.34;4915188;28;97253;-74
2022/03/26 03:48:11;;;;;;;1999.90;999.90;;;;;;;5.42;42.07;102464.88;4923816;28;97329;-73
2022/03/26 03:50:39;;;;;;;1999.90;999.90;;;;;;;5.40;42.19;102468.22;4914030;28;98301;-73
2022/03/26 03:53:07;;;;;;;1999.90;999.90;;;;;;;5.38;42.22;102470.75;4913535;28;100918;-73
2022/03/26 03:55:34;;;;;;;1999.90;999.90;;;;;;;5.36;42.15;102474.13;4915021;28;97130;-74
2022/03/26 03:58:02;;;;;;;1999.90;999.90;;;;;;;5.33;42.09;102473.88;4916197;28;97524;-75
2022/03/26 04:00:30;;;;;;;1999.90;999.90;;;;;;;5.32;42.26;102472.97;4914095;28;99115;-74
2022/03/26 04:03:00;;;;;;;1999.90;999.90;;;;;;;5.28;42.27;102470.94;4912185;28;99499;-74
2022/03/26 04:05:29;;;;;;;1999.90;999.90;;;;;;;5.23;42.38;102462.69;4909606;28;97846;-74
2022/03/26 04:07:57;;;;;;;1999.90;999.90;;;;;;;5.18;42.31;102461.47;4912960;28;97093;-73
2022/03/26 04:10:25;;;;;;;1999.90;999.90;;;;;;;5.13;42.20;102448.75;4912800;28;100164;-74
2022/03/26 04:12:58;;;;;;;1999.90;999.90;;;;;;;5.05;42.25;102455.22;4912608;28;97899;-74
2022/03/26 04:15:26;;;;;;;1999.90;999.90;;;;;;;4.99;42.40;102450.38;4915121;28;98217;-75
2022/03/26 04:17:54;;;;;;;1999.90;999.90;;;;;;;4.96;42.57;102457.16;4918509;28;97913;-72
2022/03/26 04:20:22;;;;;;;1999.90;999.90;;;;;;;4.95;42.62;102451.00;4908123;28;97663;-74
2022/03/26 04:22:51;;;;;;;1999.90;999.90;;;;;;;4.94;42.70;102456.16;4917465;28;97533;-74
2022/03/26 04:25:19;;;;;;;1999.90;999.90;;;;;;;4.95;42.35;102461.56;4916361;28;97904;-73
2022/03/26 04:27:49;;;;;;;1999.90;999.90;;;;;;;4.94;42.43;102464.97;4908270;28;97289;-74
2022/03/26 04:30:17;;;;;;;1999.90;999.90;;;;;;;4.93;42.36;102452.63;4917544;28;99400;-75
2022/03/26 04:32:45;;;;;;;1999.90;999.90;;;;;;;4.93;42.44;102468.44;4900696;28;100724;-74
2022/03/26 04:35:13;;;;;;;1999.90;999.90;;;;;;;4.92;42.28;102468.31;4912871;28;97727;-72
2022/03/26 04:37:41;;;;;;;1999.90;999.90;;;;;;;4.93;42.43;102473.72;4916059;28;96985;-72
2022/03/26 04:40:11;;;;;;;1999.90;999.90;;;;;;;4.94;42.42;102483.44;4915527;28;98362;-72
2022/03/26 04:42:40;;;;;;;1999.90;999.90;;;;;;;4.93;42.49;102486.00;4907708;28;100444;-71
2022/03/26 04:45:09;;;;;;;1999.90;999.90;;;;;;;4.93;42.38;102489.56;4919043;28;97556;-74
2022/03/26 04:47:37;;;;;;;1999.90;999.90;;;;;;;4.90;42.39;102493.69;4924720;28;98172;-74
2022/03/26 04:50:07;;;;;;;1999.90;999.90;;;;;;;4.88;42.52;102500.59;4918960;28;98002;-75
2022/03/26 04:52:34;;;;;;;1999.90;999.90;;;;;;;4.82;42.39;102505.41;4923993;28;97694;-76
2022/03/26 04:55:04;;;;;;;1999.90;999.90;;;;;;;4.78;42.66;102504.28;4929025;28;96964;-74
2022/03/26 04:57:38;;;;;;;1999.90;999.90;;;;;;;4.73;42.62;102504.75;4924632;28;97182;-75
2022/03/26 05:00:08;;;;;;;1999.90;999.90;;;;;;;4.69;42.63;102506.25;4920162;28;98202;-71
2022/03/26 05:02:39;;;;;;;1999.90;999.90;;;;;;;4.64;42.95;102506.72;4918208;28;99378;-72
2022/03/26 05:05:08;;;;;;;1999.90;999.90;;;;;;;4.66;42.85;102515.66;4917174;28;97682;-77
2022/03/26 05:07:48;;;;;;;1999.90;999.90;;;;;;;4.65;43.03;102513.81;4919308;28;97092;-74
2022/03/26 05:10:17;;;;;;;1999.90;999.90;;;;;;;4.69;43.04;102515.88;4918463;28;99184;-74
2022/03/26 05:12:47;;;;;;;1999.90;999.90;;;;;;;4.72;43.01;102522.28;4921472;28;98739;-75
2022/03/26 05:15:16;;;;;;;1999.90;999.90;;;;;;;4.73;42.74;102517.94;4920180;28;98052;-75
2022/03/26 05:17:44;;;;;;;1999.90;999.90;;;;;;;4.74;42.82;102525.03;4901493;28;97389;-73
2022/03/26 05:20:13;;;;;;;1999.90;999.90;;;;;;;4.75;42.81;102524.25;4916803;28;97572;-74
2022/03/26 05:22:41;;;;;;;1999.90;999.90;;;;;;;4.72;42.89;102516.09;4915036;28;97891;-75
2022/03/26 05:25:09;;;;;;;1999.90;999.90;;;;;;;4.73;42.80;102515.28;4911225;28;97408;-72
2022/03/26 05:27:37;;;;;;;1999.90;999.90;;;;;;;4.74;42.76;102511.84;4914372;28;97869;-75
2022/03/26 05:30:08;;;;;;;1999.90;999.90;;;;;;;4.70;42.79;102512.44;4906729;28;99686;-73
2022/03/26 05:32:36;;;;;;;1999.90;999.90;;;;;;;4.64;43.04;102510.28;4915041;28;97826;-73
2022/03/26 05:35:06;;;;;;;1999.90;999.90;;;;;;;4.58;42.96;102501.00;4915149;28;100176;-73
2022/03/26 05:37:34;;;;;;;1999.90;999.90;;;;;;;4.54;43.18;102501.56;4915655;28;98449;-73
2022/03/26 05:40:02;;;;;;;1999.90;999.90;;;;;;;4.49;43.15;102505.59;4887437;28;99086;-75
2022/03/26 05:42:30;;;;;;;1999.90;999.90;;;;;;;4.42;43.18;102508.59;4916623;28;98882;-76
2022/03/26 05:44:58;;;;;;;1999.90;999.90;;;;;;;4.33;43.48;102507.94;4917704;28;97721;-75
2022/03/26 05:47:27;;;;;;;1999.90;999.90;;;;;;;4.23;43.72;102507.25;4918711;28;97371;-75
2022/03/26 05:49:55;;;;;;;1999.90;999.90;;;;;;;4.22;43.81;102521.22;4918122;28;97634;-75
2022/03/26 05:52:22;;;;;;;1999.90;999.90;;;;;;;4.24;43.86;102532.78;4916110;28;99711;-74
2022/03/26 05:54:50;;;;;;;1999.90;999.90;;;;;;;4.30;43.81;102531.44;4918000;28;97413;-76
2022/03/26 05:57:18;;;;;;;1999.90;999.90;;;;;;;4.32;44.03;102528.09;4893202;28;97103;-74
2022/03/26 05:59:46;;;;;;;1999.90;999.90;;;;;;;4.36;44.16;102523.94;4918840;28;98105;-75
2022/03/26 06:02:17;;;;;;;1999.90;999.90;;;;;;;4.42;43.92;102524.41;4923311;28;99682;-74
2022/03/26 06:04:47;;;;;;;1999.90;999.90;;;;;;;4.45;43.92;102520.28;4917271;28;98278;-75
2022/03/26 06:07:19;;;;;;;1999.90;999.90;;;;;;;3.94;44.71;102522.59;4916689;28;97041;-73
2022/03/26 06:09:47;;;;;;;1999.90;999.90;;;;;;;3.77;45.26;102537.94;4918612;28;97749;-72
2022/03/26 06:12:15;;;;;;;1999.90;999.90;;;;;;;3.68;45.48;102543.41;4915480;28;98243;-75
2022/03/26 06:14:42;;;;;;;1999.90;999.90;;;;;;;3.59;45.13;102547.00;4918538;28;97283;-73
2022/03/26 06:17:10;;;;;;;1999.90;999.90;;;;;;;3.54;45.22;102548.34;4919021;28;96934;-72
2022/03/26 06:19:38;;;;;;;1999.90;999.90;;;;;;;3.52;45.58;102545.63;4919691;28;100204;-74
2022/03/26 06:22:07;;;;;;;1999.90;999.90;;;;;;;3.50;45.25;102547.22;4917972;28;98887;-72
2022/03/26 06:24:35;;;;;;;1999.90;999.90;;;;;;;3.46;45.41;102549.50;4915322;28;97685;-74
2022/03/26 06:27:03;;;;;;;1999.90;999.90;;;;;;;3.44;45.22;102540.56;4919354;28;97553;-72
2022/03/26 06:29:33;;;;;;;1999.90;999.90;;;;;;;3.42;44.89;102543.09;4919547;28;98888;-73
2022/03/26 06:32:02;;;;;;;1999.90;999.90;;;;;;;3.41;45.52;102535.97;4918521;28;99095;-71
2022/03/26 06:34:30;;;;;;;1999.90;999.90;;;;;;;3.44;45.70;102533.56;4919049;28;97927;-72
2022/03/26 06:36:58;;;;;;;1999.90;999.90;;;;;;;3.83;44.95;102531.41;4917386;28;97661;-71
2022/03/26 06:39:27;;;;;;;1999.90;999.90;;;;;;;4.08;45.12;102534.16;4900148;28;100641;-74
2022/03/26 06:41:56;;;;;;;1999.90;999.90;;;;;;;4.28;45.07;102538.31;4917066;28;99275;-72
2022/03/26 06:44:24;;;;;;;1999.90;999.90;;;;;;;4.42;44.84;102532.31;4922925;28;97255;-71
2022/03/26 06:46:52;;;;;;;1999.90;999.90;;;;;;;4.55;44.80;102532.41;4917229;28;97884;-72
2022/03/26 06:49:19;;;;;;;1999.90;999.90;;;;;;;4.65;44.70;102534.91;4916520;28;99664;-72
2022/03/26 06:51:47;;;;;;;1999.90;999.90;;;;;;;4.74;44.42;102525.03;4913911;28;99776;-71
2022/03/26 06:54:17;;;;;;;1999.90;999.90;;;;;;;4.33;45.35;102529.00;4915050;28;97756;-72
2022/03/26 06:56:46;;;;;;;1999.90;999.90;;;;;;;4.11;45.67;102527.44;4920576;28;97388;-73
2022/03/26 06:59:19;;;;;;;1999.90;999.90;;;;;;;4.03;45.70;102536.47;4917982;28;98250;-72
2022/03/26 07:01:46;;;;;;;1999.90;999.90;;;;;;;4.02;45.63;102531.97;4918722;28;97612;-71
2022/03/26 07:04:17;;;;;;;1999.90;999.90;;;;;;;4.38;45.66;102528.53;4915019;28;98136;-75
2022/03/26 07:06:45;;;;;;;1999.90;999.90;;;;;;;4.19;45.49;102534.16;4917673;28;98055;-70
2022/03/26 07:09:13;;;;;;;1999.90;999.90;;;;;;;4.19;45.72;102536.81;4915799;28;98241;-72
2022/03/26 07:11:40;;;;;;;1999.90;999.90;;;;;;;4.19;45.44;102534.16;4917303;28;98730;-72
2022/03/26 07:14:09;;;;;;;1999.90;999.90;;;;;;;4.22;45.54;102534.38;4916075;28;98518;-72
2022/03/26 07:16:37;;;;;;;1999.90;999.90;;;;;;;4.26;45.38;102537.28;4905065;28;97826;-74
2022/03/26 07:19:05;;;;;;;1999.90;999.90;;;;;;;4.30;45.51;102544.59;4917743;28;97952;-71
2022/03/26 07:21:33;;;;;;;1999.90;999.90;;;;;;;4.34;45.34;102544.94;4916572;28;98834;-73
2022/03/26 07:24:01;;;;;;;1999.90;999.90;;;;;;;4.40;45.21;102553.31;4903057;28;98198;-72
2022/03/26 07:26:29;;;;;;;1999.90;999.90;;;;;;;4.46;45.25;102552.84;4906606;28;99153;-73
2022/03/26 07:28:57;;;;;;;1999.90;999.90;;;;;;;4.53;45.30;102550.78;4916811;28;98913;-72
2022/03/26 07:31:26;;;;;;;1999.90;999.90;;;;;;;4.58;44.89;102553.72;4924134;28;98774;-74
2022/03/26 07:33:54;;;;;;;1999.90;999.90;;;;;;;4.66;44.93;102552.59;4914256;28;97937;-71
2022/03/26 07:36:22;;;;;;;1999.90;999.90;;;;;;;4.71;44.81;102557.38;4904926;28;96863;-71
2022/03/26 07:38:50;;;;;;;1999.90;999.90;;;;;;;4.80;44.55;102558.06;4910359;28;99378;-73
2022/03/26 07:41:18;;;;;;;1999.90;999.90;;;;;;;4.86;44.55;102553.22;4902430;28;101804;-73
2022/03/26 07:43:46;;;;;;;1999.90;999.90;;;;;;;4.94;44.77;102548.47;4913153;28;99883;-71
2022/03/26 07:46:18;;;;;;;1999.90;999.90;;;;;;;5.01;44.50;102545.50;4915374;28;98103;-71
2022/03/26 07:48:47;;;;;;;1999.90;999.90;;;;;;;5.10;44.34;102543.56;4910719;28;99352;-72
2022/03/26 07:51:15;;;;;;;1999.90;999.90;;;;;;;5.20;44.02;102541.66;4907123;28;99270;-72
2022/03/26 07:53:43;;;;;;;1999.90;999.90;;;;;;;5.27;44.14;102553.56;4909156;28;98818;-72
2022/03/26 07:56:10;;;;;;;1999.90;999.90;;;;;;;5.36;44.14;102546.28;4905017;28;98589;-71
2022/03/26 07:58:38;;;;;;;1999.90;999.90;;;;;;;5.44;43.88;102547.75;4892928;28;102043;-72
2022/03/26 08:01:06;;;;;;;1999.90;999.90;;;;;;;5.51;43.72;102557.00;4895303;28;99639;-72
2022/03/26 08:03:34;;;;;;;1999.90;999.90;;;;;;;5.57;44.08;102552.16;4908828;28;99629;-71
2022/03/26 08:06:04;;;;;;;1999.90;999.90;;;;;;;5.64;43.54;102547.41;4901087;28;98025;-73
2022/03/26 08:08:35;;;;;;;1999.90;999.90;;;;;;;5.72;43.45;102546.19;4914518;28;97247;-72
2022/03/26 08:11:03;;;;;;;1999.90;999.90;;;;;;;5.79;43.38;102548.47;4919948;28;98233;-70
2022/03/26 08:13:33;;;;;;;1999.90;999.90;;;;;;;5.87;43.29;102551.59;4926767;28;97787;-72
2022/03/26 08:16:01;;;;;;;1999.90;999.90;;;;;;;5.95;43.66;102550.41;4917652;28;97894;-73
2022/03/26 08:18:29;;;;;;;1999.90;999.90;;;;;;;5.99;43.50;102544.53;4927046;28;99287;-71
2022/03/26 08:21:04;;;;;;;1999.90;999.90;;;;;;;6.04;43.21;102551.94;4929094;28;100241;-72
2022/03/26 08:23:32;;;;;;;1999.90;999.90;;;;;;;6.09;43.17;102553.16;4922536;28;97269;-72
2022/03/26 08:28:45;;;;;;;1999.90;999.90;;;;;;;6.20;42.84;102541.59;4920373;28;98982;-72
2022/03/26 08:31:13;;;;;;;1999.90;999.90;;;;;;;6.28;43.14;102541.22;4916177;28;97677;-72
2022/03/26 08:33:41;;;;;;;1999.90;999.90;;;;;;;6.32;42.76;102538.88;4916897;28;97254;-71
2022/03/26 08:36:11;;;;;;;1999.90;999.90;;;;;;;6.39;42.76;102543.75;4916684;28;97430;-74
2022/03/26 08:38:39;;;;;;;1999.90;999.90;;;;;;;6.47;42.72;102525.75;4920971;28;98752;-74
2022/03/26 08:41:07;;;;;;;1999.90;999.90;;;;;;;6.54;42.37;102541.22;4919225;28;99077;-73
2022/03/26 08:43:35;;;;;;;1999.90;999.90;;;;;;;6.59;42.78;102537.13;4920364;28;97641;-73
2022/03/26 08:46:02;;;;;;;1999.90;999.90;;;;;;;6.67;42.69;102538.56;4912741;28;98355;-73
2022/03/26 08:48:31;;;;;;;1999.90;999.90;;;;;;;6.73;42.50;102536.28;4913481;28;99252;-72
2022/03/26 08:51:00;;;;;;;1999.90;999.90;;;;;;;6.78;42.57;102524.28;4917333;28;99891;-74
2022/03/26 08:53:29;;;;;;;1999.90;999.90;;;;;;;6.84;42.25;102522.00;4917771;28;97379;-74
2022/03/26 08:55:57;;;;;;;1999.90;999.90;;;;;;;6.91;42.16;102532.16;4921722;28;97987;-72
2022/03/26 08:58:26;;;;;;;1999.90;999.90;;;;;;;6.95;41.94;102516.59;4920345;28;98950;-72
2022/03/26 09:00:54;;;;;;;1999.90;999.90;;;;;;;7.02;41.95;102525.81;4919646;28;97731;-73
2022/03/26 09:03:22;;;;;;;1999.90;999.90;;;;;;;7.05;42.19;102518.09;4912024;28;96981;-74
2022/03/26 09:05:56;;;;;;;1999.90;999.90;;;;;;;7.12;42.25;102517.66;4935172;28;96910;-73
2022/03/26 09:08:24;;;;;;;1999.90;999.90;;;;;;;7.18;42.07;102524.22;4919975;28;98644;-73
2022/03/26 09:10:53;;;;;;;1999.90;999.90;;;;;;;7.22;41.75;102522.69;4921802;28;97150;-72
2022/03/26 09:13:21;;;;;;;1999.90;999.90;;;;;;;7.25;41.98;102522.91;4920769;28;97796;-72
2022/03/26 09:15:49;;;;;;;1999.90;999.90;;;;;;;7.27;41.86;102519.50;4920281;28;97489;-74
2022/03/26 09:18:17;;;;;;;1999.90;999.90;;;;;;;7.31;41.86;102514.41;4927572;28;100615;-75
2022/03/26 09:20:45;;;;;;;1999.90;999.90;;;;;;;7.37;41.96;102515.69;4906437;28;97871;-71
2022/03/26 09:23:13;;;;;;;1999.90;999.90;;;;;;;7.44;42.00;102514.41;4922001;28;98062;-74
2022/03/26 09:25:41;;;;;;;1999.90;999.90;;;;;;;7.49;41.64;102513.81;4921301;28;97102;-74
2022/03/26 09:28:11;;;;;;;1999.90;999.90;;;;;;;7.81;41.99;102519.34;4917950;28;98242;-73
2022/03/26 09:30:39;;;;;;;1999.90;999.90;;;;;;;7.71;41.97;102514.31;4921083;28;99158;-74
2022/03/26 09:33:07;;;;;;;1999.90;999.90;;;;;;;7.71;41.99;102506.34;4919800;28;97109;-73
2022/03/26 09:35:34;;;;;;;1999.90;999.90;;;;;;;7.75;42.06;102518.03;4917544;28;97346;-75
2022/03/26 09:38:02;;;;;;;1999.90;999.90;;;;;;;7.76;42.11;102526.13;4920255;28;97922;-75
2022/03/26 09:40:30;;;;;;;1999.90;999.90;;;;;;;7.83;42.03;102501.81;4920129;28;98105;-73
2022/03/26 09:42:58;;;;;;;1999.90;999.90;;;;;;;7.89;41.77;102509.22;4921966;28;97801;-73
2022/03/26 09:45:27;;;;;;;1999.90;999.90;;;;;;;7.95;41.43;102505.16;4920967;28;97809;-74
2022/03/26 09:47:55;;;;;;;1999.90;999.90;;;;;;;8.00;41.47;102506.34;4920845;28;97630;-73
2022/03/26 09:50:23;;;;;;;1999.90;999.90;;;;;;;8.05;41.81;102493.38;4919700;28;98085;-74
2022/03/26 09:52:51;;;;;;;1999.90;999.90;;;;;;;8.12;41.40;102514.13;4918642;28;97681;-74
2022/03/26 09:55:21;;;;;;;1999.90;999.90;;;;;;;8.15;41.35;102491.34;4919560;28;98228;-73
2022/03/26 09:57:50;;;;;;;1999.90;999.90;;;;;;;8.19;41.37;102488.03;4926275;28;98443;-74
2022/03/26 10:00:17;;;;;;;1999.90;999.90;;;;;;;8.25;41.27;102492.78;4917983;28;100282;-73
2022/03/26 10:02:46;;;;;;;1999.90;999.90;;;;;;;8.29;41.32;102500.09;4919320;28;98165;-74
2022/03/26 10:05:18;;;;;;;1999.90;999.90;;;;;;;8.35;41.04;102481.88;4916161;28;97852;-73
2022/03/26 10:07:47;;;;;;;1999.90;999.90;;;;;;;8.39;41.20;102480.31;4933784;28;98101;-73
2022/03/26 10:10:22;;;;;;;1999.90;999.90;;;;;;;8.47;40.93;102486.97;4917082;28;98837;-73
2022/03/26 10:12:52;;;;;;;1999.90;999.90;;;;;;;8.77;40.66;102484.31;4914346;28;98807;-75
2022/03/26 10:15:19;;;;;;;1999.90;999.90;;;;;;;8.70;40.74;102498.09;4918168;28;98094;-73
2022/03/26 10:17:49;;;;;;;1999.90;999.90;;;;;;;8.72;40.47;102479.59;4917783;28;98732;-74
2022/03/26 10:20:17;;;;;;;1999.90;999.90;;;;;;;8.72;40.51;102476.94;4917684;28;97940;-73
2022/03/26 10:22:45;;;;;;;1999.90;999.90;;;;;;;8.75;40.50;102469.16;4919186;28;97462;-76
2022/03/26 10:25:15;;;;;;;1999.90;999.90;;;;;;;8.80;40.38;102475.63;4918640;28;101058;-72
2022/03/26 10:27:44;;;;;;;1999.90;999.90;;;;;;;8.85;40.32;102474.13;4920674;28;97734;-73
2022/03/26 10:30:14;;;;;;;1999.90;999.90;;;;;;;8.88;40.24;102476.94;4919401;28;98727;-73
2022/03/26 10:32:43;;;;;;;1999.90;999.90;;;;;;;8.91;40.10;102458.53;4919483;28;97605;-72
2022/03/26 10:35:22;;;;;;;1999.90;999.90;;;;;;;8.94;40.04;102461.34;4921489;28;97808;-73
2022/03/26 10:37:58;;;;;;;1999.90;999.90;;;;;;;9.01;39.95;102460.84;4918701;28;98818;-75
2022/03/26 10:40:29;;;;;;;1999.90;999.90;;;;;;;9.05;39.72;102461.13;4923325;28;98956;-72
2022/03/26 10:43:06;;;;;;;1999.90;999.90;;;;;;;9.11;39.71;102458.78;4920836;28;97413;-74
2022/03/26 10:45:37;;;;;;;1999.90;999.90;;;;;;;9.13;39.62;102453.56;4932795;28;97050;-74
2022/03/26 10:48:09;;;;;;;1999.90;999.90;;;;;;;9.20;39.54;102461.03;4917769;28;97740;-73
2022/03/26 10:50:38;;;;;;;1999.90;999.90;;;;;;;9.24;39.33;102450.63;4927931;28;98860;-73
2022/03/26 10:53:08;;;;;;;1999.90;999.90;;;;;;;9.27;39.14;102456.94;4917893;28;97341;-74
2022/03/26 10:55:37;;;;;;;1999.90;999.90;;;;;;;9.28;39.16;102464.97;4920646;28;97885;-72
2022/03/26 10:58:05;;;;;;;1999.90;999.90;;;;;;;9.29;38.95;102464.16;4916159;28;100688;-73
2022/03/26 11:00:33;;;;;;;1999.90;999.90;;;;;;;9.34;39.06;102452.03;4918454;28;97727;-73
2022/03/26 11:03:02;;;;;;;1999.90;999.90;;;;;;;9.41;38.98;102459.47;4919130;28;97119;-72